Time;durP1;ratioP1;P1;durP2;ratioP2;P2;SDS_P1;SDS_P2;PMS_P1;PMS_P2;Temp;Humidity;BMP_temperature;BMP_pressure;BME280_temperature;BME280_humidity;BME280_pressure;Samples;Min_cycle;Max_cycle;Signal;HPM_P1;HPM_P2
2023/05/01 00:02:12;;;;;;;;;;;;;;;29.04;26.51;100640.66;5076078;28;1030;-23
2023/05/01 00:04:38;;;;;;;;;;;;;;;28.97;26.47;100650.59;5076291;28;1910;-26
2023/05/01 00:07:03;;;;;;;;;;;;;;;29.40;26.31;100656.84;5069212;28;999;-25
2023/05/01 00:09:29;;;;;;;;;;;;;;;29.42;26.28;100654.78;5075343;28;1131;-25
2023/05/01 00:11:54;;;;;;;;;;;;;;;29.89;25.54;100663.16;5076511;28;1142;-23
2023/05/01 00:14:20;;;;;;;;;;;;;;;29.19;26.31;100654.06;5075406;28;1054;-23
2023/05/01 00:16:46;;;;;;;;;;;;;;;28.88;26.78;100651.75;5076170;28;1045;-24
2023/05/01 00:19:17;;;;;;;;;;;;;;;29.63;25.99;100658.47;5088790;28;1105;-23
2023/05/01 00:21:44;;;;;;;;;;;;;;;29.51;25.72;100655.47;5075707;28;1114;-28
2023/05/01 00:24:10;;;;;;;;;;;;;;;29.10;26.40;100655.25;5062287;28;1905;-25
2023/05/01 00:26:35;;;;;;;;;;;;;;;29.10;26.52;100663.38;5075833;28;1019;-24
2023/05/01 00:29:01;;;;;;;;;;;;;;;29.45;26.34;100667.94;5075844;28;1023;-25
2023/05/01 00:31:27;;;;;;;;;;;;;;;29.76;25.98;100666.63;5082431;28;1050;-23
2023/05/01 00:33:53;;;;;;;;;;;;;;;29.18;26.49;100663.22;5057813;28;984;-24
2023/05/01 00:36:19;;;;;;;;;;;;;;;29.27;26.49;100668.47;5079099;28;1213;-23
2023/05/01 00:38:45;;;;;;;;;;;;;;;29.51;26.20;100669.00;5055994;28;1114;-24
2023/05/01 00:41:10;;;;;;;;;;;;;;;29.73;25.85;100669.75;5069368;28;1039;-24
2023/05/01 00:43:36;;;;;;;;;;;;;;;29.10;26.56;100671.50;5070066;28;1050;-24
2023/05/01 00:46:02;;;;;;;;;;;;;;;29.05;27.02;100674.81;5072990;28;1980;-24
2023/05/01 00:48:27;;;;;;;;;;;;;;;29.35;26.58;100671.00;5061509;28;1174;-26
2023/05/01 00:50:53;;;;;;;;;;;;;;;29.83;25.86;100672.06;5061807;28;1071;-23
2023/05/01 00:53:19;;;;;;;;;;;;;;;29.32;26.14;100669.56;5061763;28;1185;-25
2023/05/01 00:55:44;;;;;;;;;;;;;;;29.21;26.57;100670.13;5072307;28;1219;-24
2023/05/01 00:58:10;;;;;;;;;;;;;;;29.47;26.38;100682.13;5065669;28;1230;-23
2023/05/01 01:00:36;;;;;;;;;;;;;;;29.55;25.97;100678.41;5061233;28;1230;-22
2023/05/01 01:03:03;;;;;;;;;;;;;;;29.09;26.39;100684.19;5060718;28;1114;-25
2023/05/01 01:05:28;;;;;;;;;;;;;;;29.15;26.83;100690.69;5080362;28;1922;-26
2023/05/01 01:07:57;;;;;;;;;;;;;;;29.35;26.59;100687.28;5061177;28;1077;-26
2023/05/01 01:10:41;;;;;;;;;;;;;;;29.80;26.14;100691.47;5079006;28;1031;-24
2023/05/01 01:13:15;;;;;;;;;;;;;;;29.27;26.46;100692.84;5049283;28;1207;-23
2023/05/01 01:15:52;;;;;;;;;;;;;;;29.30;26.45;100685.16;5060640;28;1094;-24
2023/05/01 01:18:20;;;;;;;;;;;;;;;29.60;26.31;100685.94;5086494;28;1146;-24
2023/05/01 01:20:46;;;;;;;;;;;;;;;29.28;26.47;100691.84;5045632;28;1070;-24
2023/05/01 01:23:14;;;;;;;;;;;;;;;29.09;26.68;100692.31;5078472;28;1058;-25
2023/05/01 01:25:46;;;;;;;;;;;;;;;29.35;26.68;100681.84;5078787;28;1910;-24
2023/05/01 01:28:30;;;;;;;;;;;;;;;29.40;26.71;100687.50;5078560;28;1114;-25
2023/05/01 01:31:09;;;;;;;;;;;;;;;29.88;25.93;100687.75;5074033;28;837;-23
2023/05/01 01:33:53;;;;;;;;;;;;;;;29.30;26.72;100684.31;5060277;28;1308;-24
2023/05/01 01:36:21;;;;;;;;;;;;;;;29.20;26.70;100690.94;5081782;28;1155;-26
2023/05/01 01:39:17;;;;;;;;;;;;;;;29.75;26.15;100685.81;5030187;28;1056;-23
2023/05/01 01:41:44;;;;;;;;;;;;;;;29.08;26.54;100690.66;5045855;28;1522;-26
2023/05/01 01:44:19;;;;;;;;;;;;;;;29.11;26.57;100694.84;5058205;28;1225;-23
2023/05/01 01:46:45;;;;;;;;;;;;;;;29.34;26.55;100697.25;5039695;28;1167;-24
2023/05/01 01:49:12;;;;;;;;;;;;;;;29.45;26.41;100695.88;5040155;28;1210;-26
2023/05/01 01:51:38;;;;;;;;;;;;;;;29.51;25.99;100693.41;5059542;28;1266;-24
2023/05/01 01:54:04;;;;;;;;;;;;;;;29.30;26.56;100704.13;5081428;28;1209;-24
2023/05/01 01:56:31;;;;;;;;;;;;;;;29.26;26.92;100689.28;5043401;28;1425;-25
2023/05/01 01:58:57;;;;;;;;;;;;;;;29.89;25.89;100690.25;5060207;28;1243;-23
2023/05/01 02:01:23;;;;;;;;;;;;;;;29.14;26.38;100697.16;5059800;28;1231;-24
2023/05/01 02:03:48;;;;;;;;;;;;;;;29.16;26.43;100705.09;5060045;28;1291;-23
2023/05/01 02:06:14;;;;;;;;;;;;;;;29.31;26.90;100702.25;5063631;28;1918;-25
2023/05/01 02:08:41;;;;;;;;;;;;;;;29.39;26.73;100704.81;5054655;28;1170;-23
2023/05/01 02:11:06;;;;;;;;;;;;;;;29.80;26.03;100700.44;5076620;28;1167;-25
2023/05/01 02:13:32;;;;;;;;;;;;;;;29.23;26.43;100708.66;5059610;28;1106;-26
2023/05/01 02:15:58;;;;;;;;;;;;;;;28.86;27.24;100708.81;5059531;28;1198;-23
2023/05/01 02:18:25;;;;;;;;;;;;;;;29.58;26.39;100707.81;5063883;28;2078;-23
2023/05/01 02:20:50;;;;;;;;;;;;;;;29.19;26.53;100713.66;5059205;28;1158;-24
2023/05/01 02:23:17;;;;;;;;;;;;;;;29.02;26.74;100717.69;5052252;28;1202;-25
2023/05/01 02:25:43;;;;;;;;;;;;;;;29.32;26.79;100717.47;5076996;28;1898;-23
2023/05/01 02:28:11;;;;;;;;;;;;;;;29.40;26.64;100717.31;5059975;28;1143;-25
2023/05/01 02:30:37;;;;;;;;;;;;;;;29.88;25.98;100723.81;5065121;28;1199;-23
2023/05/01 02:33:04;;;;;;;;;;;;;;;29.05;26.75;100723.56;5084225;28;1038;-24
2023/05/01 02:35:30;;;;;;;;;;;;;;;29.13;26.85;100717.13;5077018;28;1105;-27
2023/05/01 02:37:56;;;;;;;;;;;;;;;29.13;27.02;100727.97;5062789;28;1159;-24
2023/05/01 02:40:22;;;;;;;;;;;;;;;29.06;26.98;100729.81;5058801;28;1083;-23
2023/05/01 02:42:47;;;;;;;;;;;;;;;28.92;27.15;100729.69;5058985;28;1192;-25
2023/05/01 02:45:18;;;;;;;;;;;;;;;29.29;26.92;100728.72;5058844;28;1964;-24
2023/05/01 02:47:43;;;;;;;;;;;;;;;29.97;25.87;100737.19;5059060;28;1146;-24
2023/05/01 02:50:09;;;;;;;;;;;;;;;29.40;26.31;100743.56;5058936;28;1063;-24
2023/05/01 02:52:35;;;;;;;;;;;;;;;29.16;26.39;100740.31;5058707;28;1131;-25
2023/05/01 02:55:20;;;;;;;;;;;;;;;29.31;26.89;100751.84;5058980;28;1180;-24
2023/05/01 02:57:46;;;;;;;;;;;;;;;29.65;26.42;100757.50;5076442;28;1165;-23
2023/05/01 03:00:12;;;;;;;;;;;;;;;29.09;26.43;100745.66;5058574;28;1317;-24
2023/05/01 03:02:39;;;;;;;;;;;;;;;29.02;26.77;100755.59;5058577;28;1254;-24
2023/05/01 03:05:04;;;;;;;;;;;;;;;29.56;26.44;100751.38;5058391;28;1907;-24
2023/05/01 03:07:33;;;;;;;;;;;;;;;29.54;26.15;100760.75;5048954;28;1325;-25
2023/05/01 03:10:03;;;;;;;;;;;;;;;29.17;26.37;100759.06;5064596;28;1139;-25
2023/05/01 03:12:29;;;;;;;;;;;;;;;29.19;27.10;100765.13;5076613;28;1217;-23
2023/05/01 03:14:55;;;;;;;;;;;;;;;29.38;26.67;100773.56;5059074;28;1127;-23
2023/05/01 03:17:21;;;;;;;;;;;;;;;29.34;26.09;100778.53;5047243;28;1161;-23
2023/05/01 03:19:48;;;;;;;;;;;;;;;29.23;26.48;100778.28;5077956;28;1202;-23
2023/05/01 03:22:14;;;;;;;;;;;;;;;29.28;26.75;100776.63;5049711;28;1202;-24
2023/05/01 03:24:39;;;;;;;;;;;;;;;29.57;26.31;100774.75;5058213;28;1981;-24
2023/05/01 03:27:06;;;;;;;;;;;;;;;29.30;26.52;100782.69;5058666;28;1207;-23
2023/05/01 03:29:33;;;;;;;;;;;;;;;28.72;26.63;100779.06;5058293;28;1342;-26
2023/05/01 03:31:58;;;;;;;;;;;;;;;27.99;24.19;100780.72;5049223;28;1133;-24
2023/05/01 03:34:24;;;;;;;;;;;;;;;26.17;24.30;100784.69;5042678;28;1278;-25
2023/05/01 03:36:49;;;;;;;;;;;;;;;25.48;24.89;100779.84;5062461;28;1162;-24
2023/05/01 03:39:15;;;;;;;;;;;;;;;24.48;26.30;100787.84;5037890;28;1309;-25
2023/05/01 03:41:59;;;;;;;;;;;;;;;24.42;26.50;100787.47;5059167;28;1029;-26
2023/05/01 03:44:28;;;;;;;;;;;;;;;24.53;26.47;100797.13;5061849;28;1935;-26
2023/05/01 03:46:53;;;;;;;;;;;;;;;25.59;26.58;100800.19;5037448;28;1450;-24
2023/05/01 03:49:23;;;;;;;;;;;;;;;25.69;26.40;100792.81;5037362;28;1405;-24
2023/05/01 03:51:50;;;;;;;;;;;;;;;25.96;25.88;100803.34;5037519;28;1462;-26
2023/05/01 03:54:16;;;;;;;;;;;;;;;26.27;25.66;100800.69;5032430;28;1158;-25
2023/05/01 03:57:02;;;;;;;;;;;;;;;25.86;26.12;100806.22;5075372;28;1465;-23
2023/05/01 03:59:29;;;;;;;;;;;;;;;25.03;26.37;100812.50;5057945;28;1244;-24
2023/05/01 04:01:54;;;;;;;;;;;;;;;26.14;25.33;100808.50;5058142;28;1214;-23
2023/05/01 04:04:20;;;;;;;;;;;;;;;25.48;25.84;100807.63;5075088;28;1983;-24
2023/05/01 04:06:51;;;;;;;;;;;;;;;26.35;24.73;100810.59;5058166;28;2206;-23
2023/05/01 04:09:17;;;;;;;;;;;;;;;26.55;24.45;100812.00;5058862;28;1204;-23
2023/05/01 04:11:43;;;;;;;;;;;;;;;26.35;24.32;100817.84;5074414;28;1035;-26
2023/05/01 04:14:08;;;;;;;;;;;;;;;26.21;24.21;100816.72;5074365;28;1050;-23
2023/05/01 04:16:35;;;;;;;;;;;;;;;25.09;23.70;100816.41;5056579;28;1233;-23
2023/05/01 04:19:00;;;;;;;;;;;;;;;25.03;23.09;100823.28;5061187;28;1190;-24
2023/05/01 04:21:26;;;;;;;;;;;;;;;24.83;23.60;100826.25;5069807;28;1318;-24
2023/05/01 04:23:52;;;;;;;;;;;;;;;24.62;24.91;100822.19;5060978;28;1474;-25
2023/05/01 04:26:18;;;;;;;;;;;;;;;24.89;24.85;100838.22;5057757;28;1909;-24
2023/05/01 04:28:43;;;;;;;;;;;;;;;24.86;26.05;100830.47;5074596;28;1005;-23
2023/05/01 04:31:11;;;;;;;;;;;;;;;24.72;26.24;100830.09;5051219;28;1167;-23
2023/05/01 04:33:37;;;;;;;;;;;;;;;24.58;26.55;100835.13;5043820;28;1246;-24
2023/05/01 04:36:03;;;;;;;;;;;;;;;24.57;26.71;100832.59;5043363;28;1275;-24
2023/05/01 04:38:29;;;;;;;;;;;;;;;24.61;27.10;100842.00;5061987;28;1410;-24
2023/05/01 04:40:56;;;;;;;;;;;;;;;24.43;27.71;100842.13;5060838;28;1229;-25
2023/05/01 04:43:22;;;;;;;;;;;;;;;23.87;28.87;100843.34;5061477;28;1282;-25
2023/05/01 04:45:47;;;;;;;;;;;;;;;23.75;29.45;100849.97;5058686;28;1905;-25
2023/05/01 04:48:13;;;;;;;;;;;;;;;23.44;29.44;100848.59;5061195;28;1178;-24
2023/05/01 04:50:39;;;;;;;;;;;;;;;22.09;31.80;100845.41;5063693;28;1163;-24
2023/05/01 04:53:04;;;;;;;;;;;;;;;22.20;31.68;100851.59;5067633;28;1083;-23
2023/05/01 04:55:32;;;;;;;;;;;;;;;22.67;30.28;100847.16;5050522;28;1218;-24
2023/05/01 04:58:12;;;;;;;;;;;;;;;22.65;30.23;100858.03;5053390;28;1485;-24
2023/05/01 05:00:38;;;;;;;;;;;;;;;22.91;29.89;100853.75;5060786;28;1241;-24
2023/05/01 05:03:06;;;;;;;;;;;;;;;23.14;29.72;100861.38;5049621;28;1440;-26
2023/05/01 05:05:32;;;;;;;;;;;;;;;23.51;28.85;100862.22;5045349;28;2023;-26
2023/05/01 05:07:58;;;;;;;;;;;;;;;23.33;28.96;100858.53;5053548;28;1320;-24
2023/05/01 05:10:24;;;;;;;;;;;;;;;23.15;28.87;100857.69;5066089;28;1100;-26
2023/05/01 05:13:02;;;;;;;;;;;;;;;23.37;28.09;100861.75;5057965;28;1416;-24
2023/05/01 05:15:28;;;;;;;;;;;;;;;22.97;28.48;100864.72;5029990;28;1322;-24
2023/05/01 05:17:54;;;;;;;;;;;;;;;23.04;28.21;100864.97;5060773;28;1167;-23
2023/05/01 05:20:20;;;;;;;;;;;;;;;23.46;27.42;100873.41;5062704;28;1267;-24
2023/05/01 05:22:45;;;;;;;;;;;;;;;23.55;27.27;100868.97;5051470;28;1193;-23
2023/05/01 05:25:19;;;;;;;;;;;;;;;23.30;27.81;100874.94;5056356;28;1913;-24
2023/05/01 05:27:45;;;;;;;;;;;;;;;23.65;26.97;100872.41;5060459;28;1099;-25
2023/05/01 05:30:10;;;;;;;;;;;;;;;23.86;26.52;100873.88;5059376;28;1059;-24
2023/05/01 05:32:37;;;;;;;;;;;;;;;23.80;26.45;100875.38;5051237;28;1301;-25
2023/05/01 05:35:02;;;;;;;;;;;;;;;23.97;26.25;100881.66;5069680;28;1147;-27
2023/05/01 05:37:28;;;;;;;;;;;;;;;24.04;26.24;100884.56;5062724;28;1235;-23
2023/05/01 05:39:54;;;;;;;;;;;;;;;24.11;25.99;100882.09;5060122;28;1174;-24
2023/05/01 05:42:20;;;;;;;;;;;;;;;24.13;27.56;100884.63;5059820;28;1139;-23
2023/05/01 05:44:46;;;;;;;;;;;;;;;24.17;27.54;100886.03;5059466;28;1910;-26
2023/05/01 05:47:11;;;;;;;;;;;;;;;24.15;27.32;100877.25;5060009;28;1228;-24
2023/05/01 05:49:37;;;;;;;;;;;;;;;24.14;27.07;100881.75;5060107;28;1329;-24
2023/05/01 05:52:02;;;;;;;;;;;;;;;24.33;26.84;100886.13;5077671;28;1078;-25
2023/05/01 05:54:28;;;;;;;;;;;;;;;24.35;27.42;100885.94;5060058;28;1229;-23
2023/05/01 05:56:54;;;;;;;;;;;;;;;24.31;27.37;100888.09;5061001;28;1119;-23
2023/05/01 05:59:19;;;;;;;;;;;;;;;24.15;26.00;100896.91;5059668;28;1115;-24
2023/05/01 06:01:46;;;;;;;;;;;;;;;24.06;26.86;100895.16;5059649;28;1221;-23
2023/05/01 06:04:13;;;;;;;;;;;;;;;23.48;27.13;100896.44;5072577;28;1130;-26
2023/05/01 06:06:40;;;;;;;;;;;;;;;22.89;27.11;100893.31;5051186;28;2009;-24
2023/05/01 06:09:07;;;;;;;;;;;;;;;23.42;27.02;100894.34;5082742;28;1066;-27
2023/05/01 06:11:33;;;;;;;;;;;;;;;23.75;27.01;100899.16;5077731;28;1062;-23
2023/05/01 06:13:59;;;;;;;;;;;;;;;23.93;26.42;100895.59;5059417;28;1297;-23
2023/05/01 06:16:25;;;;;;;;;;;;;;;24.12;26.60;100897.22;5059590;28;1244;-22
2023/05/01 06:18:51;;;;;;;;;;;;;;;23.60;26.50;100910.47;5059218;28;1067;-23
2023/05/01 06:21:17;;;;;;;;;;;;;;;23.65;26.86;100909.16;5063756;28;1123;-25
2023/05/01 06:23:42;;;;;;;;;;;;;;;23.57;27.78;100918.00;5076825;28;1177;-23
2023/05/01 06:26:22;;;;;;;;;;;;;;;24.01;28.35;100917.13;5076463;28;1910;-23
2023/05/01 06:28:48;;;;;;;;;;;;;;;24.08;28.47;100920.88;5059221;28;1309;-23
2023/05/01 06:31:13;;;;;;;;;;;;;;;24.27;28.26;100924.41;5076915;28;1117;-23
2023/05/01 06:33:44;;;;;;;;;;;;;;;24.21;27.99;100920.50;5071416;28;1233;-26
2023/05/01 06:36:21;;;;;;;;;;;;;;;24.36;27.63;100925.25;5062385;28;1557;-24
2023/05/01 06:38:48;;;;;;;;;;;;;;;24.49;27.03;100927.50;5042646;28;1209;-23
2023/05/01 06:41:17;;;;;;;;;;;;;;;24.42;27.51;100921.09;5037941;28;1325;-25
2023/05/01 06:43:43;;;;;;;;;;;;;;;24.39;27.25;100926.81;5038756;28;1321;-28
2023/05/01 06:46:09;;;;;;;;;;;;;;;24.43;27.52;100937.06;5046419;28;1977;-26
2023/05/01 06:48:35;;;;;;;;;;;;;;;24.58;27.70;100940.00;5058531;28;1062;-23
2023/05/01 06:51:00;;;;;;;;;;;;;;;24.63;26.62;100946.72;5076347;28;1174;-23
2023/05/01 06:53:26;;;;;;;;;;;;;;;24.39;25.64;100943.75;5058727;28;1765;-25
2023/05/01 06:55:51;;;;;;;;;;;;;;;24.52;24.88;100935.28;5045030;28;1447;-25
2023/05/01 06:58:17;;;;;;;;;;;;;;;24.85;24.02;100936.41;5054594;28;945;-24
2023/05/01 07:00:42;;;;;;;;;;;;;;;24.95;24.31;100950.59;5056294;28;1146;-25
2023/05/01 07:03:08;;;;;;;;;;;;;;;25.04;24.92;100962.25;5076165;28;963;-24
2023/05/01 07:05:34;;;;;;;;;;;;;;;25.12;24.22;100954.19;5076070;28;1979;-24
2023/05/01 07:08:00;;;;;;;;;;;;;;;25.09;23.79;100965.25;5076240;28;1086;-24
2023/05/01 07:10:25;;;;;;;;;;;;;;;25.18;24.13;100958.06;5068660;28;897;-26
2023/05/01 07:12:51;;;;;;;;;;;;;;;25.00;21.99;100964.41;5076365;28;1030;-24
2023/05/01 07:15:17;;;;;;;;;;;;;;;25.06;22.95;100963.75;5075906;28;1071;-26
2023/05/01 07:17:42;;;;;;;;;;;;;;;25.35;23.51;100966.16;5067739;28;1293;-28
2023/05/01 07:20:09;;;;;;;;;;;;;;;25.25;23.21;100966.31;5070926;28;1055;-25
2023/05/01 07:22:34;;;;;;;;;;;;;;;25.15;24.94;100969.16;5070288;28;1383;-25
2023/05/01 07:25:01;;;;;;;;;;;;;;;25.34;23.86;100969.88;5089272;28;1901;-24
2023/05/01 07:27:27;;;;;;;;;;;;;;;25.48;23.31;100971.06;5076216;28;1158;-25
2023/05/01 07:29:54;;;;;;;;;;;;;;;25.51;21.53;100976.97;5076160;28;1034;-24
2023/05/01 07:32:19;;;;;;;;;;;;;;;25.49;20.94;100978.97;5076535;28;1051;-24
2023/05/01 07:34:45;;;;;;;;;;;;;;;25.60;20.94;100985.03;5081476;28;1145;-25
2023/05/01 07:37:11;;;;;;;;;;;;;;;25.50;22.90;100982.50;5070255;28;1155;-27
2023/05/01 07:39:36;;;;;;;;;;;;;;;25.00;21.93;100982.41;5069519;28;1162;-25
2023/05/01 07:42:01;;;;;;;;;;;;;;;25.34;22.01;100994.94;5064437;28;1214;-23
2023/05/01 07:44:27;;;;;;;;;;;;;;;25.82;23.15;100994.38;5076485;28;1985;-24
2023/05/01 07:46:53;;;;;;;;;;;;;;;25.94;24.37;100991.31;5079569;28;1150;-23
2023/05/01 07:49:18;;;;;;;;;;;;;;;26.02;24.76;100994.88;5052636;28;1055;-26
2023/05/01 07:51:44;;;;;;;;;;;;;;;26.06;24.77;101005.31;5083790;28;1062;-25
2023/05/01 07:54:09;;;;;;;;;;;;;;;26.08;24.64;101008.66;5084383;28;1036;-24
2023/05/01 07:56:35;;;;;;;;;;;;;;;26.06;24.81;101011.53;5080490;28;1074;-23
2023/05/01 07:59:00;;;;;;;;;;;;;;;26.25;24.82;101018.44;5086417;28;1116;-25
2023/05/01 08:01:26;;;;;;;;;;;;;;;26.22;24.82;101021.47;5042717;28;1206;-24
2023/05/01 08:03:51;;;;;;;;;;;;;;;26.00;24.31;101023.00;5072808;28;1035;-25
2023/05/01 08:06:17;;;;;;;;;;;;;;;26.06;22.97;101022.31;5079815;28;1913;-24
2023/05/01 08:08:42;;;;;;;;;;;;;;;26.17;23.13;101030.03;5079550;28;1146;-23
2023/05/01 08:11:08;;;;;;;;;;;;;;;26.27;24.11;101035.28;5079833;28;1166;-25
2023/05/01 08:13:33;;;;;;;;;;;;;;;26.01;24.12;101030.91;5079971;28;1038;-27
2023/05/01 08:16:00;;;;;;;;;;;;;;;26.11;24.61;101044.22;5067000;28;1253;-22
2023/05/01 08:18:25;;;;;;;;;;;;;;;26.20;24.54;101036.97;5041224;28;1155;-24
2023/05/01 08:20:51;;;;;;;;;;;;;;;26.17;24.72;101037.31;5063272;28;1254;-23
2023/05/01 08:23:16;;;;;;;;;;;;;;;26.35;24.58;101034.47;5080686;28;1114;-24
2023/05/01 08:25:42;;;;;;;;;;;;;;;26.37;24.36;101035.13;5077185;28;1980;-23
2023/05/01 08:28:08;;;;;;;;;;;;;;;26.37;24.64;101031.59;5074826;28;1250;-23
2023/05/01 08:30:33;;;;;;;;;;;;;;;26.40;24.80;101031.25;5068006;28;1620;-23
2023/05/01 08:32:59;;;;;;;;;;;;;;;26.44;24.80;101024.50;5068744;28;1471;-23
2023/05/01 08:35:25;;;;;;;;;;;;;;;26.46;25.29;101035.13;5067829;28;1390;-24
2023/05/01 08:37:51;;;;;;;;;;;;;;;26.44;25.22;101031.75;5067807;28;1161;-23
2023/05/01 08:40:16;;;;;;;;;;;;;;;26.59;25.40;101031.88;5067049;28;1461;-24
2023/05/01 08:42:42;;;;;;;;;;;;;;;26.59;25.32;101032.69;5066833;28;1188;-25
2023/05/01 08:45:08;;;;;;;;;;;;;;;26.59;25.41;101030.00;5068530;28;1967;-26
2023/05/01 08:47:39;;;;;;;;;;;;;;;26.65;25.49;101029.34;5066615;28;1490;-24
2023/05/01 08:50:08;;;;;;;;;;;;;;;26.59;25.62;101030.00;5049339;28;1221;-22
2023/05/01 08:52:34;;;;;;;;;;;;;;;26.67;25.30;101034.56;5066304;28;1219;-23
2023/05/01 08:55:00;;;;;;;;;;;;;;;26.74;25.51;101038.22;5051248;28;1470;-24
2023/05/01 08:57:26;;;;;;;;;;;;;;;26.62;25.04;101039.63;5058065;28;1198;-25
2023/05/01 08:59:52;;;;;;;;;;;;;;;26.63;26.03;101035.91;5061186;28;1253;-23
2023/05/01 09:02:17;;;;;;;;;;;;;;;26.73;26.11;101047.34;5060819;28;1125;-22
2023/05/01 09:04:43;;;;;;;;;;;;;;;26.74;25.80;101040.94;5053029;28;1979;-27
2023/05/01 09:07:09;;;;;;;;;;;;;;;26.81;25.92;101048.34;5071298;28;1123;-23
2023/05/01 09:09:34;;;;;;;;;;;;;;;26.85;25.78;101045.13;5083316;28;1070;-24
2023/05/01 09:12:03;;;;;;;;;;;;;;;26.84;26.15;101039.91;5067767;28;1042;-24
2023/05/01 09:14:29;;;;;;;;;;;;;;;26.78;26.33;101039.56;5078461;28;1083;-23
2023/05/01 09:16:55;;;;;;;;;;;;;;;26.83;26.28;101036.34;5055061;28;1225;-23
2023/05/01 09:19:21;;;;;;;;;;;;;;;26.94;26.10;101039.69;5067773;28;1525;-23
2023/05/01 09:21:46;;;;;;;;;;;;;;;26.92;26.37;101049.81;5076739;28;1147;-25
2023/05/01 09:24:12;;;;;;;;;;;;;;;26.88;26.39;101044.78;5077965;28;1024;-23
2023/05/01 09:26:40;;;;;;;;;;;;;;;26.96;26.19;101048.47;5078023;28;1978;-22
2023/05/01 09:29:06;;;;;;;;;;;;;;;26.96;26.10;101043.06;5078727;28;1089;-24
2023/05/01 09:31:32;;;;;;;;;;;;;;;26.96;26.51;101041.19;5077987;28;1246;-24
2023/05/01 09:33:58;;;;;;;;;;;;;;;26.92;26.48;101045.28;5084688;28;1155;-25
2023/05/01 09:36:24;;;;;;;;;;;;;;;26.88;26.35;101039.38;5079180;28;1494;-25
2023/05/01 09:38:50;;;;;;;;;;;;;;;26.89;26.47;101046.44;5083025;28;1065;-23
2023/05/01 09:41:16;;;;;;;;;;;;;;;26.86;26.38;101043.28;5077909;28;1090;-23
2023/05/01 09:43:42;;;;;;;;;;;;;;;26.80;26.59;101046.66;5077724;28;1174;-23
2023/05/01 09:46:09;;;;;;;;;;;;;;;26.88;26.51;101036.69;5067196;28;2003;-23
2023/05/01 09:48:36;;;;;;;;;;;;;;;26.92;26.75;101044.41;5083051;28;1085;-23
2023/05/01 09:51:20;;;;;;;;;;;;;;;26.97;26.65;101037.50;5078336;28;1173;-24
2023/05/01 09:53:46;;;;;;;;;;;;;;;26.96;26.59;101051.16;5077359;28;1022;-23
2023/05/01 09:56:12;;;;;;;;;;;;;;;26.99;26.38;101040.03;5077725;28;1074;-24
2023/05/01 09:58:38;;;;;;;;;;;;;;;26.85;26.39;101004.63;5062919;28;1106;-23
2023/05/01 10:01:03;;;;;;;;;;;;;;;26.96;26.27;101043.06;5057559;28;1158;-23
2023/05/01 10:03:29;;;;;;;;;;;;;;;27.07;26.20;101045.41;5066990;28;1087;-23
2023/05/01 10:05:56;;;;;;;;;;;;;;;27.00;26.56;101049.78;5059531;28;1914;-23
2023/05/01 10:08:22;;;;;;;;;;;;;;;27.08;26.32;101046.22;5077043;28;1121;-23
2023/05/01 10:11:07;;;;;;;;;;;;;;;27.12;26.46;101042.19;5084979;28;1067;-25
2023/05/01 10:13:32;;;;;;;;;;;;;;;26.90;26.65;101048.16;5077173;28;1133;-23
2023/05/01 10:16:00;;;;;;;;;;;;;;;26.91;26.68;101046.28;5058890;28;1139;-23
2023/05/01 10:18:25;;;;;;;;;;;;;;;26.83;26.61;101041.75;5077141;28;1147;-28
2023/05/01 10:20:51;;;;;;;;;;;;;;;26.92;26.65;101039.03;5059159;28;1046;-23
2023/05/01 10:23:17;;;;;;;;;;;;;;;26.86;26.47;101044.09;5078239;28;1012;-26
2023/05/01 10:25:42;;;;;;;;;;;;;;;26.63;27.09;101052.94;5083186;28;1975;-22
2023/05/01 10:28:08;;;;;;;;;;;;;;;26.81;27.12;101051.88;5084793;28;1053;-23
2023/05/01 10:30:34;;;;;;;;;;;;;;;26.83;26.91;101054.41;5077182;28;1230;-23
2023/05/01 10:33:00;;;;;;;;;;;;;;;26.85;26.87;101053.22;5076957;28;1067;-23
2023/05/01 10:35:26;;;;;;;;;;;;;;;26.82;27.13;101050.88;5076742;28;1170;-23
2023/05/01 10:37:57;;;;;;;;;;;;;;;26.86;26.85;101057.59;5062154;28;1226;-22
2023/05/01 10:40:38;;;;;;;;;;;;;;;26.83;27.10;101054.41;5059322;28;1023;-23
2023/05/01 10:43:14;;;;;;;;;;;;;;;26.81;26.80;101054.56;5076818;28;1039;-22
2023/05/01 10:45:41;;;;;;;;;;;;;;;26.94;26.87;101055.91;5062501;28;1915;-22
2023/05/01 10:48:06;;;;;;;;;;;;;;;26.86;26.86;101054.91;5087309;28;825;-24
2023/05/01 10:50:33;;;;;;;;;;;;;;;26.85;26.98;101049.69;5076539;28;1141;-24
2023/05/01 10:53:10;;;;;;;;;;;;;;;26.84;27.23;101054.22;5076700;28;1063;-23
2023/05/01 10:55:36;;;;;;;;;;;;;;;26.84;26.67;101026.41;5076577;28;1023;-23
2023/05/01 10:58:02;;;;;;;;;;;;;;;26.84;26.99;101048.81;5077800;28;1113;-23
2023/05/01 11:00:28;;;;;;;;;;;;;;;26.83;26.92;101054.41;5078648;28;1098;-25
2023/05/01 11:03:17;;;;;;;;;;;;;;;26.82;27.13;101048.19;5076148;28;1122;-23
2023/05/01 11:06:03;;;;;;;;;;;;;;;26.82;27.04;101050.88;5062277;28;1906;-22
2023/05/01 11:08:30;;;;;;;;;;;;;;;26.80;26.79;101052.91;5076354;28;1082;-23
2023/05/01 11:10:55;;;;;;;;;;;;;;;26.82;27.00;101050.88;5079464;28;1108;-23
2023/05/01 11:13:39;;;;;;;;;;;;;;;26.84;27.16;101061.50;5076783;28;1061;-22
2023/05/01 11:16:23;;;;;;;;;;;;;;;26.76;26.92;101051.53;5076664;28;1102;-24
2023/05/01 11:18:49;;;;;;;;;;;;;;;26.76;26.90;101049.69;5076711;28;1178;-23
2023/05/01 11:21:15;;;;;;;;;;;;;;;26.75;26.89;101056.13;5076473;28;1214;-24
2023/05/01 11:23:45;;;;;;;;;;;;;;;26.83;27.00;101057.94;5068734;28;1166;-23
2023/05/01 11:26:10;;;;;;;;;;;;;;;26.77;26.85;101056.81;5058033;28;2039;-24
2023/05/01 11:28:36;;;;;;;;;;;;;;;26.82;27.06;101052.72;5075270;28;1086;-24
2023/05/01 11:31:02;;;;;;;;;;;;;;;26.78;27.34;101052.22;5058296;28;1058;-22
2023/05/01 11:33:27;;;;;;;;;;;;;;;26.86;27.07;101054.06;5058195;28;1282;-22
2023/05/01 11:35:57;;;;;;;;;;;;;;;26.84;26.76;101048.00;5056586;28;944;-23
2023/05/01 11:38:23;;;;;;;;;;;;;;;25.92;21.60;101046.22;5083536;28;1119;-24
2023/05/01 11:40:52;;;;;;;;;;;;;;;25.65;21.96;101050.94;5076172;28;1038;-26
2023/05/01 11:43:18;;;;;;;;;;;;;;;25.64;20.50;101046.53;5075895;28;1170;-25
2023/05/01 11:45:44;;;;;;;;;;;;;;;25.80;21.02;101061.06;5075534;28;1973;-25
2023/05/01 11:48:15;;;;;;;;;;;;;;;25.84;19.89;101048.09;5077059;28;1004;-25
2023/05/01 11:50:41;;;;;;;;;;;;;;;25.31;20.73;101041.88;5076188;28;1117;-24
2023/05/01 11:53:14;;;;;;;;;;;;;;;25.15;21.26;101044.53;5075976;28;1154;-27
2023/05/01 11:55:40;;;;;;;;;;;;;;;25.26;20.75;101048.75;5076175;28;1158;-24
2023/05/01 11:58:05;;;;;;;;;;;;;;;25.55;22.34;101050.19;5078655;28;1408;-26
2023/05/01 12:00:38;;;;;;;;;;;;;;;25.15;20.57;101044.53;5070843;28;941;-26
2023/05/01 12:03:05;;;;;;;;;;;;;;;25.39;20.72;101035.69;5075832;28;1035;-24
2023/05/01 12:05:31;;;;;;;;;;;;;;;25.06;21.22;101032.88;5075249;28;1969;-26
2023/05/01 12:08:17;;;;;;;;;;;;;;;24.78;21.87;101030.38;5081658;28;991;-24
2023/05/01 12:10:43;;;;;;;;;;;;;;;24.99;20.32;101038.06;5078307;28;1431;-27
2023/05/01 12:13:09;;;;;;;;;;;;;;;24.96;20.74;101026.81;5064787;28;1289;-23
2023/05/01 12:15:36;;;;;;;;;;;;;;;24.81;20.86;101021.97;5070417;28;1126;-23
2023/05/01 12:18:02;;;;;;;;;;;;;;;24.81;21.10;101028.22;5075513;28;1090;-24
2023/05/01 12:20:37;;;;;;;;;;;;;;;24.52;21.10;101028.56;5075760;28;1185;-26
2023/05/01 12:23:06;;;;;;;;;;;;;;;24.73;21.82;101033.53;5080026;28;1046;-26
2023/05/01 12:25:32;;;;;;;;;;;;;;;25.66;23.12;101031.06;5060610;28;1965;-22
2023/05/01 12:28:00;;;;;;;;;;;;;;;26.10;23.37;101042.53;5075666;28;1058;-23
2023/05/01 12:30:26;;;;;;;;;;;;;;;25.77;22.32;101032.59;5075876;28;1166;-23
2023/05/01 12:32:52;;;;;;;;;;;;;;;25.46;21.59;101037.72;5075362;28;1057;-25
2023/05/01 12:35:17;;;;;;;;;;;;;;;26.01;23.90;101048.91;5076790;28;1162;-25
2023/05/01 12:37:43;;;;;;;;;;;;;;;26.55;23.74;101052.97;5068737;28;1158;-22
2023/05/01 12:40:12;;;;;;;;;;;;;;;26.52;24.10;101056.00;5075578;28;1125;-22
2023/05/01 12:42:37;;;;;;;;;;;;;;;26.54;24.44;101064.78;5078921;28;1122;-22
2023/05/01 12:45:03;;;;;;;;;;;;;;;26.59;24.55;101064.25;5061421;28;1923;-24
2023/05/01 12:47:35;;;;;;;;;;;;;;;26.59;24.76;101061.56;5067685;28;1110;-24
2023/05/01 12:50:03;;;;;;;;;;;;;;;26.61;24.93;101059.53;5080138;28;1045;-23